Terminal Aerodrome Forecast
Issued by NWS Cleveland, OH

Home | Current Version | Previous Version | Graphics & Text | Print | Product List | Glossary On
Versions: 1 2 3 4 5 6 7 8 9 10 11 12 13 14 15 16 17
000
FTUS41 KCLE 182300
TAFMFD
TAF
KMFD 182328Z 1900/1924 02010KT P6SM BKN200
     FM191500 11012G20KT P6SM SCT060 OVC100
     FM191700 11014G22KT P6SM -SHRA BKN060 OVC100
     FM191900 12015G25KT 5SM -SHRA BKN025 OVC050
     FM192200 13016G26KT 3SM -SHRA BR VCTS BKN009 OVC022CB=

USA.gov is the U.S. government's official web portal to all federal, state and local government web resources and services.